Forest City, North Carolina
Current Conditions -  °F | °C
As of 6:15 PM on Wednesday 22 Oct 2014 (Local Time) from KFQD Reporting Station
Clear Clear  
Wind Chill: 56°   Ceiling: Unl
Heat Index: 56°   Visibility: 10mi
Dew Point: 38°   Wind: 8mph
Humidity: 50%   Direction: 340°NNW
Pressure: 30.11"   Gusts: 21mph
Location:  35.33°N, 81.86°W
Report Text: KFQD 222215Z AUTO 34007G18KT 10SM CLR 13/03 A3011 RMK AO2 T01340031
Loading
Personal Weather Stations






























Interactive Weather Map
Tropical Storm Tracking
New forecast layout! Learn more

10-Day Weather Forecast

Advertisements
Track Severe Weather on mobile